sensor_id;sensor_type;location;lat;lon;timestamp;P1;durP1;ratioP1;P2;durP2;ratioP2
11924;SDS011;6022;48.768;18.608;2022-07-23T00:01:00;7.77;;;6.20;;
11924;SDS011;6022;48.768;18.608;2022-07-23T00:03:28;6.70;;;6.10;;
11924;SDS011;6022;48.768;18.608;2022-07-23T00:05:56;8.30;;;6.37;;
11924;SDS011;6022;48.768;18.608;2022-07-23T00:08:24;9.40;;;6.47;;
11924;SDS011;6022;48.768;18.608;2022-07-23T00:10:51;7.80;;;6.47;;
11924;SDS011;6022;48.768;18.608;2022-07-23T00:13:19;9.33;;;6.43;;
11924;SDS011;6022;48.768;18.608;2022-07-23T00:15:46;7.20;;;6.47;;
11924;SDS011;6022;48.768;18.608;2022-07-23T00:18:14;9.50;;;6.47;;
11924;SDS011;6022;48.768;18.608;2022-07-23T00:20:42;8.83;;;6.50;;
11924;SDS011;6022;48.768;18.608;2022-07-23T00:23:11;7.73;;;6.80;;
11924;SDS011;6022;48.768;18.608;2022-07-23T00:25:38;7.00;;;6.30;;
11924;SDS011;6022;48.768;18.608;2022-07-23T00:28:06;8.20;;;6.37;;
11924;SDS011;6022;48.768;18.608;2022-07-23T00:30:35;9.80;;;6.90;;
11924;SDS011;6022;48.768;18.608;2022-07-23T00:33:03;8.10;;;6.80;;
11924;SDS011;6022;48.768;18.608;2022-07-23T00:35:37;7.47;;;6.50;;
11924;SDS011;6022;48.768;18.608;2022-07-23T00:38:08;7.10;;;6.40;;
11924;SDS011;6022;48.768;18.608;2022-07-23T00:40:37;6.83;;;6.07;;
11924;SDS011;6022;48.768;18.608;2022-07-23T00:43:08;7.77;;;6.37;;
11924;SDS011;6022;48.768;18.608;2022-07-23T00:45:36;10.83;;;6.60;;
11924;SDS011;6022;48.768;18.608;2022-07-23T00:48:10;6.83;;;6.13;;
11924;SDS011;6022;48.768;18.608;2022-07-23T00:50:40;9.87;;;6.40;;
11924;SDS011;6022;48.768;18.608;2022-07-23T00:53:12;9.77;;;6.60;;
11924;SDS011;6022;48.768;18.608;2022-07-23T00:55:43;7.43;;;6.40;;
11924;SDS011;6022;48.768;18.608;2022-07-23T00:58:11;7.27;;;6.57;;
11924;SDS011;6022;48.768;18.608;2022-07-23T01:00:39;6.30;;;5.53;;
11924;SDS011;6022;48.768;18.608;2022-07-23T01:03:07;8.77;;;6.30;;
11924;SDS011;6022;48.768;18.608;2022-07-23T01:05:37;9.30;;;6.87;;
11924;SDS011;6022;48.768;18.608;2022-07-23T01:08:05;10.80;;;7.00;;
11924;SDS011;6022;48.768;18.608;2022-07-23T01:10:33;12.87;;;7.70;;
11924;SDS011;6022;48.768;18.608;2022-07-23T01:13:08;8.17;;;6.93;;
11924;SDS011;6022;48.768;18.608;2022-07-23T01:15:37;10.03;;;7.27;;
11924;SDS011;6022;48.768;18.608;2022-07-23T01:18:06;9.63;;;7.43;;
11924;SDS011;6022;48.768;18.608;2022-07-23T01:20:35;8.97;;;7.30;;
11924;SDS011;6022;48.768;18.608;2022-07-23T01:23:03;7.27;;;6.57;;
11924;SDS011;6022;48.768;18.608;2022-07-23T01:25:30;9.33;;;7.30;;
11924;SDS011;6022;48.768;18.608;2022-07-23T01:27:59;9.53;;;6.97;;
11924;SDS011;6022;48.768;18.608;2022-07-23T01:30:27;9.67;;;7.50;;
11924;SDS011;6022;48.768;18.608;2022-07-23T01:32:55;9.67;;;7.77;;
11924;SDS011;6022;48.768;18.608;2022-07-23T01:35:22;6.97;;;6.17;;
11924;SDS011;6022;48.768;18.608;2022-07-23T01:37:53;7.50;;;6.70;;
11924;SDS011;6022;48.768;18.608;2022-07-23T01:40:20;7.77;;;6.77;;
11924;SDS011;6022;48.768;18.608;2022-07-23T01:42:49;6.97;;;6.37;;
11924;SDS011;6022;48.768;18.608;2022-07-23T01:45:17;10.27;;;7.60;;
11924;SDS011;6022;48.768;18.608;2022-07-23T01:47:45;7.80;;;6.80;;
11924;SDS011;6022;48.768;18.608;2022-07-23T01:50:13;7.73;;;7.03;;
11924;SDS011;6022;48.768;18.608;2022-07-23T01:52:41;8.30;;;6.73;;
11924;SDS011;6022;48.768;18.608;2022-07-23T01:55:09;8.00;;;7.20;;
11924;SDS011;6022;48.768;18.608;2022-07-23T01:57:44;9.40;;;6.93;;
11924;SDS011;6022;48.768;18.608;2022-07-23T02:00:13;10.17;;;7.20;;
11924;SDS011;6022;48.768;18.608;2022-07-23T02:02:41;12.47;;;7.07;;
11924;SDS011;6022;48.768;18.608;2022-07-23T02:05:09;10.80;;;7.00;;
11924;SDS011;6022;48.768;18.608;2022-07-23T02:07:38;10.87;;;7.73;;
11924;SDS011;6022;48.768;18.608;2022-07-23T02:10:06;10.30;;;6.87;;
11924;SDS011;6022;48.768;18.608;2022-07-23T02:12:34;11.13;;;6.73;;
11924;SDS011;6022;48.768;18.608;2022-07-23T02:15:02;7.57;;;6.87;;
11924;SDS011;6022;48.768;18.608;2022-07-23T02:17:31;11.43;;;7.90;;
11924;SDS011;6022;48.768;18.608;2022-07-23T02:19:58;9.77;;;7.23;;
11924;SDS011;6022;48.768;18.608;2022-07-23T02:22:27;9.57;;;7.07;;
11924;SDS011;6022;48.768;18.608;2022-07-23T02:24:55;10.40;;;6.97;;
11924;SDS011;6022;48.768;18.608;2022-07-23T02:27:22;11.13;;;7.37;;
11924;SDS011;6022;48.768;18.608;2022-07-23T02:29:53;9.73;;;7.37;;
11924;SDS011;6022;48.768;18.608;2022-07-23T02:32:21;8.93;;;6.97;;
11924;SDS011;6022;48.768;18.608;2022-07-23T02:34:50;7.90;;;7.10;;
11924;SDS011;6022;48.768;18.608;2022-07-23T02:37:18;12.23;;;8.07;;
11924;SDS011;6022;48.768;18.608;2022-07-23T02:39:46;9.20;;;7.07;;
11924;SDS011;6022;48.768;18.608;2022-07-23T02:42:15;9.17;;;8.00;;
11924;SDS011;6022;48.768;18.608;2022-07-23T02:44:44;7.63;;;6.87;;
11924;SDS011;6022;48.768;18.608;2022-07-23T02:47:13;10.40;;;8.37;;
11924;SDS011;6022;48.768;18.608;2022-07-23T02:49:41;8.90;;;6.87;;
11924;SDS011;6022;48.768;18.608;2022-07-23T02:52:08;8.63;;;7.17;;
11924;SDS011;6022;48.768;18.608;2022-07-23T02:54:39;9.93;;;7.10;;
11924;SDS011;6022;48.768;18.608;2022-07-23T02:57:08;7.67;;;6.97;;
11924;SDS011;6022;48.768;18.608;2022-07-23T02:59:36;11.47;;;8.03;;
11924;SDS011;6022;48.768;18.608;2022-07-23T03:02:04;8.77;;;6.97;;
11924;SDS011;6022;48.768;18.608;2022-07-23T03:04:31;14.10;;;7.47;;
11924;SDS011;6022;48.768;18.608;2022-07-23T03:06:59;12.37;;;7.77;;
11924;SDS011;6022;48.768;18.608;2022-07-23T03:09:30;10.00;;;6.97;;
11924;SDS011;6022;48.768;18.608;2022-07-23T03:11:58;8.63;;;7.33;;
11924;SDS011;6022;48.768;18.608;2022-07-23T03:14:25;8.77;;;7.37;;
11924;SDS011;6022;48.768;18.608;2022-07-23T03:16:54;8.27;;;7.30;;
11924;SDS011;6022;48.768;18.608;2022-07-23T03:19:22;8.23;;;7.37;;
11924;SDS011;6022;48.768;18.608;2022-07-23T03:21:51;8.27;;;7.20;;
11924;SDS011;6022;48.768;18.608;2022-07-23T03:24:18;11.33;;;7.40;;
11924;SDS011;6022;48.768;18.608;2022-07-23T03:26:45;11.33;;;7.47;;
11924;SDS011;6022;48.768;18.608;2022-07-23T03:29:14;9.47;;;7.53;;
11924;SDS011;6022;48.768;18.608;2022-07-23T03:31:41;10.47;;;7.17;;
11924;SDS011;6022;48.768;18.608;2022-07-23T03:34:09;10.97;;;7.63;;
11924;SDS011;6022;48.768;18.608;2022-07-23T03:36:37;9.70;;;7.53;;
11924;SDS011;6022;48.768;18.608;2022-07-23T03:39:06;13.23;;;7.20;;
11924;SDS011;6022;48.768;18.608;2022-07-23T03:41:39;9.60;;;7.77;;
11924;SDS011;6022;48.768;18.608;2022-07-23T03:44:06;9.40;;;7.57;;
11924;SDS011;6022;48.768;18.608;2022-07-23T03:46:34;11.10;;;7.77;;
11924;SDS011;6022;48.768;18.608;2022-07-23T03:49:03;9.77;;;7.03;;
11924;SDS011;6022;48.768;18.608;2022-07-23T03:51:31;8.50;;;7.63;;
11924;SDS011;6022;48.768;18.608;2022-07-23T03:53:58;7.93;;;7.13;;
11924;SDS011;6022;48.768;18.608;2022-07-23T03:56:26;9.60;;;7.17;;
11924;SDS011;6022;48.768;18.608;2022-07-23T03:58:55;10.97;;;7.80;;
11924;SDS011;6022;48.768;18.608;2022-07-23T04:01:24;12.10;;;7.80;;
11924;SDS011;6022;48.768;18.608;2022-07-23T04:03:52;11.77;;;7.43;;
11924;SDS011;6022;48.768;18.608;2022-07-23T04:06:20;10.87;;;7.60;;
11924;SDS011;6022;48.768;18.608;2022-07-23T04:08:48;8.87;;;7.53;;
11924;SDS011;6022;48.768;18.608;2022-07-23T04:11:15;9.37;;;7.70;;
11924;SDS011;6022;48.768;18.608;2022-07-23T04:13:43;9.60;;;7.50;;
11924;SDS011;6022;48.768;18.608;2022-07-23T04:16:11;8.57;;;7.23;;
11924;SDS011;6022;48.768;18.608;2022-07-23T04:18:38;12.93;;;7.70;;
11924;SDS011;6022;48.768;18.608;2022-07-23T04:21:06;9.20;;;7.87;;
11924;SDS011;6022;48.768;18.608;2022-07-23T04:23:34;10.87;;;7.13;;
11924;SDS011;6022;48.768;18.608;2022-07-23T04:26:02;9.37;;;7.07;;
11924;SDS011;6022;48.768;18.608;2022-07-23T04:28:29;8.10;;;7.30;;
11924;SDS011;6022;48.768;18.608;2022-07-23T04:30:57;9.03;;;7.00;;
11924;SDS011;6022;48.768;18.608;2022-07-23T04:33:26;9.20;;;7.23;;
11924;SDS011;6022;48.768;18.608;2022-07-23T04:35:53;13.03;;;7.67;;
11924;SDS011;6022;48.768;18.608;2022-07-23T04:38:21;9.50;;;7.13;;
11924;SDS011;6022;48.768;18.608;2022-07-23T04:40:48;11.70;;;7.27;;
11924;SDS011;6022;48.768;18.608;2022-07-23T04:43:17;10.27;;;6.90;;
11924;SDS011;6022;48.768;18.608;2022-07-23T04:45:46;9.07;;;7.33;;
11924;SDS011;6022;48.768;18.608;2022-07-23T04:48:14;9.03;;;7.53;;
11924;SDS011;6022;48.768;18.608;2022-07-23T04:50:43;12.43;;;7.43;;
11924;SDS011;6022;48.768;18.608;2022-07-23T04:53:10;10.17;;;7.60;;
11924;SDS011;6022;48.768;18.608;2022-07-23T04:55:38;12.50;;;7.07;;
11924;SDS011;6022;48.768;18.608;2022-07-23T04:58:05;8.33;;;7.07;;
11924;SDS011;6022;48.768;18.608;2022-07-23T05:00:33;7.97;;;7.17;;
11924;SDS011;6022;48.768;18.608;2022-07-23T05:03:01;11.03;;;7.50;;
11924;SDS011;6022;48.768;18.608;2022-07-23T05:05:29;12.03;;;7.60;;
11924;SDS011;6022;48.768;18.608;2022-07-23T05:07:56;17.53;;;8.40;;
11924;SDS011;6022;48.768;18.608;2022-07-23T05:10:23;22.20;;;8.47;;
11924;SDS011;6022;48.768;18.608;2022-07-23T05:12:52;12.73;;;8.20;;
11924;SDS011;6022;48.768;18.608;2022-07-23T05:15:20;10.37;;;7.40;;
11924;SDS011;6022;48.768;18.608;2022-07-23T05:17:47;8.23;;;7.13;;
11924;SDS011;6022;48.768;18.608;2022-07-23T05:20:15;8.33;;;6.80;;
11924;SDS011;6022;48.768;18.608;2022-07-23T05:22:43;10.30;;;7.73;;
11924;SDS011;6022;48.768;18.608;2022-07-23T05:25:11;11.83;;;8.03;;
11924;SDS011;6022;48.768;18.608;2022-07-23T05:27:38;10.03;;;7.33;;
11924;SDS011;6022;48.768;18.608;2022-07-23T05:30:06;9.07;;;7.40;;
11924;SDS011;6022;48.768;18.608;2022-07-23T05:32:34;8.93;;;7.00;;
11924;SDS011;6022;48.768;18.608;2022-07-23T05:35:04;11.90;;;7.47;;
11924;SDS011;6022;48.768;18.608;2022-07-23T05:37:33;7.60;;;6.77;;
11924;SDS011;6022;48.768;18.608;2022-07-23T05:40:04;8.47;;;7.43;;
11924;SDS011;6022;48.768;18.608;2022-07-23T05:42:39;8.27;;;7.47;;
11924;SDS011;6022;48.768;18.608;2022-07-23T05:45:08;8.90;;;7.30;;
11924;SDS011;6022;48.768;18.608;2022-07-23T05:50:11;8.30;;;6.93;;
11924;SDS011;6022;48.768;18.608;2022-07-23T05:52:41;8.60;;;7.77;;
11924;SDS011;6022;48.768;18.608;2022-07-23T05:55:09;7.60;;;6.77;;
11924;SDS011;6022;48.768;18.608;2022-07-23T05:57:39;7.73;;;7.03;;
11924;SDS011;6022;48.768;18.608;2022-07-23T06:00:08;8.33;;;7.00;;
11924;SDS011;6022;48.768;18.608;2022-07-23T06:02:38;7.87;;;7.10;;
11924;SDS011;6022;48.768;18.608;2022-07-23T06:05:06;10.97;;;7.67;;
11924;SDS011;6022;48.768;18.608;2022-07-23T06:07:35;9.97;;;7.27;;
11924;SDS011;6022;48.768;18.608;2022-07-23T06:10:03;8.70;;;7.10;;
11924;SDS011;6022;48.768;18.608;2022-07-23T06:12:32;7.53;;;6.83;;
11924;SDS011;6022;48.768;18.608;2022-07-23T06:15:00;11.23;;;7.00;;
11924;SDS011;6022;48.768;18.608;2022-07-23T06:17:29;9.63;;;7.10;;
11924;SDS011;6022;48.768;18.608;2022-07-23T06:19:57;7.43;;;6.73;;
11924;SDS011;6022;48.768;18.608;2022-07-23T06:22:26;8.53;;;7.60;;
11924;SDS011;6022;48.768;18.608;2022-07-23T06:24:54;7.40;;;6.70;;
11924;SDS011;6022;48.768;18.608;2022-07-23T06:27:21;7.67;;;6.87;;
11924;SDS011;6022;48.768;18.608;2022-07-23T06:29:52;10.43;;;7.53;;
11924;SDS011;6022;48.768;18.608;2022-07-23T06:32:20;9.60;;;7.73;;
11924;SDS011;6022;48.768;18.608;2022-07-23T06:34:47;8.70;;;7.80;;
11924;SDS011;6022;48.768;18.608;2022-07-23T06:37:15;7.60;;;6.87;;
11924;SDS011;6022;48.768;18.608;2022-07-23T06:39:43;8.47;;;7.50;;
11924;SDS011;6022;48.768;18.608;2022-07-23T06:42:11;7.10;;;6.43;;
11924;SDS011;6022;48.768;18.608;2022-07-23T06:44:40;7.97;;;6.80;;
11924;SDS011;6022;48.768;18.608;2022-07-23T06:47:08;9.50;;;7.10;;
11924;SDS011;6022;48.768;18.608;2022-07-23T06:49:36;9.93;;;7.47;;
11924;SDS011;6022;48.768;18.608;2022-07-23T06:52:04;8.83;;;6.97;;
11924;SDS011;6022;48.768;18.608;2022-07-23T06:54:33;8.93;;;7.07;;
11924;SDS011;6022;48.768;18.608;2022-07-23T06:57:04;8.30;;;7.00;;
11924;SDS011;6022;48.768;18.608;2022-07-23T06:59:31;9.50;;;7.70;;
11924;SDS011;6022;48.768;18.608;2022-07-23T07:01:59;8.70;;;7.20;;
11924;SDS011;6022;48.768;18.608;2022-07-23T07:04:27;12.70;;;7.17;;
11924;SDS011;6022;48.768;18.608;2022-07-23T07:06:56;7.77;;;7.00;;
11924;SDS011;6022;48.768;18.608;2022-07-23T07:09:23;8.70;;;6.27;;
11924;SDS011;6022;48.768;18.608;2022-07-23T07:11:51;7.17;;;6.40;;
11924;SDS011;6022;48.768;18.608;2022-07-23T07:14:18;7.40;;;6.30;;
11924;SDS011;6022;48.768;18.608;2022-07-23T07:16:46;6.80;;;6.20;;
11924;SDS011;6022;48.768;18.608;2022-07-23T07:19:13;9.30;;;6.73;;
11924;SDS011;6022;48.768;18.608;2022-07-23T07:21:41;9.83;;;7.10;;
11924;SDS011;6022;48.768;18.608;2022-07-23T07:24:08;9.07;;;6.87;;
11924;SDS011;6022;48.768;18.608;2022-07-23T07:26:35;8.90;;;6.57;;
11924;SDS011;6022;48.768;18.608;2022-07-23T07:29:05;8.67;;;6.70;;
11924;SDS011;6022;48.768;18.608;2022-07-23T07:31:33;8.23;;;7.03;;
11924;SDS011;6022;48.768;18.608;2022-07-23T07:34:00;6.77;;;6.07;;
11924;SDS011;6022;48.768;18.608;2022-07-23T07:36:28;7.77;;;6.93;;
11924;SDS011;6022;48.768;18.608;2022-07-23T07:38:56;6.83;;;6.20;;
11924;SDS011;6022;48.768;18.608;2022-07-23T07:41:23;8.27;;;7.23;;
11924;SDS011;6022;48.768;18.608;2022-07-23T07:43:53;7.37;;;6.70;;
11924;SDS011;6022;48.768;18.608;2022-07-23T07:46:20;6.47;;;5.90;;
11924;SDS011;6022;48.768;18.608;2022-07-23T07:48:50;6.60;;;6.10;;
11924;SDS011;6022;48.768;18.608;2022-07-23T07:51:23;7.78;;;6.50;;
11924;SDS011;6022;48.768;18.608;2022-07-23T07:53:52;8.05;;;6.38;;
11924;SDS011;6022;48.768;18.608;2022-07-23T07:56:19;7.55;;;6.57;;
11924;SDS011;6022;48.768;18.608;2022-07-23T07:58:47;7.43;;;6.63;;
11924;SDS011;6022;48.768;18.608;2022-07-23T08:01:16;7.65;;;6.78;;
11924;SDS011;6022;48.768;18.608;2022-07-23T08:03:46;8.65;;;6.57;;
11924;SDS011;6022;48.768;18.608;2022-07-23T08:06:14;7.15;;;6.45;;
11924;SDS011;6022;48.768;18.608;2022-07-23T08:08:41;7.70;;;6.90;;
11924;SDS011;6022;48.768;18.608;2022-07-23T08:11:09;9.13;;;6.60;;
11924;SDS011;6022;48.768;18.608;2022-07-23T08:13:36;8.27;;;5.80;;
11924;SDS011;6022;48.768;18.608;2022-07-23T08:16:04;10.57;;;6.40;;
11924;SDS011;6022;48.768;18.608;2022-07-23T08:18:34;8.00;;;6.93;;
11924;SDS011;6022;48.768;18.608;2022-07-23T08:21:01;7.50;;;6.45;;
11924;SDS011;6022;48.768;18.608;2022-07-23T08:23:31;7.30;;;6.35;;
11924;SDS011;6022;48.768;18.608;2022-07-23T08:25:58;9.13;;;5.60;;
11924;SDS011;6022;48.768;18.608;2022-07-23T08:28:26;9.23;;;6.03;;
11924;SDS011;6022;48.768;18.608;2022-07-23T08:30:54;6.63;;;6.03;;
11924;SDS011;6022;48.768;18.608;2022-07-23T08:33:21;6.88;;;6.22;;
11924;SDS011;6022;48.768;18.608;2022-07-23T08:36:00;6.32;;;5.82;;
11924;SDS011;6022;48.768;18.608;2022-07-23T08:38:30;6.50;;;5.80;;
11924;SDS011;6022;48.768;18.608;2022-07-23T08:41:02;11.10;;;6.35;;
11924;SDS011;6022;48.768;18.608;2022-07-23T08:43:32;6.30;;;5.70;;
11924;SDS011;6022;48.768;18.608;2022-07-23T08:46:02;7.10;;;5.30;;
11924;SDS011;6022;48.768;18.608;2022-07-23T08:48:32;6.30;;;5.43;;
11924;SDS011;6022;48.768;18.608;2022-07-23T08:51:06;6.93;;;5.60;;
11924;SDS011;6022;48.768;18.608;2022-07-23T08:53:34;6.23;;;5.63;;
11924;SDS011;6022;48.768;18.608;2022-07-23T08:56:04;5.53;;;5.03;;
11924;SDS011;6022;48.768;18.608;2022-07-23T08:58:35;5.73;;;5.10;;
11924;SDS011;6022;48.768;18.608;2022-07-23T09:01:03;6.10;;;5.50;;
11924;SDS011;6022;48.768;18.608;2022-07-23T09:03:33;5.80;;;5.30;;
11924;SDS011;6022;48.768;18.608;2022-07-23T09:06:05;6.23;;;5.33;;
11924;SDS011;6022;48.768;18.608;2022-07-23T09:08:37;6.67;;;5.07;;
11924;SDS011;6022;48.768;18.608;2022-07-23T09:11:11;5.70;;;5.20;;
11924;SDS011;6022;48.768;18.608;2022-07-23T09:13:53;5.40;;;4.90;;
11924;SDS011;6022;48.768;18.608;2022-07-23T09:19:01;6.33;;;5.00;;
11924;SDS011;6022;48.768;18.608;2022-07-23T09:21:41;7.77;;;4.67;;
11924;SDS011;6022;48.768;18.608;2022-07-23T09:24:10;8.23;;;5.43;;
11924;SDS011;6022;48.768;18.608;2022-07-23T09:26:42;6.13;;;5.30;;
11924;SDS011;6022;48.768;18.608;2022-07-23T09:31:52;7.23;;;5.80;;
11924;SDS011;6022;48.768;18.608;2022-07-23T09:34:35;5.80;;;5.40;;
11924;SDS011;6022;48.768;18.608;2022-07-23T09:37:13;9.77;;;5.43;;
11924;SDS011;6022;48.768;18.608;2022-07-23T09:39:49;5.85;;;5.40;;
11924;SDS011;6022;48.768;18.608;2022-07-23T09:42:21;9.27;;;5.28;;
11924;SDS011;6022;48.768;18.608;2022-07-23T09:44:53;6.97;;;5.40;;
11924;SDS011;6022;48.768;18.608;2022-07-23T09:47:25;9.88;;;5.15;;
11924;SDS011;6022;48.768;18.608;2022-07-23T09:52:34;5.57;;;5.07;;
11924;SDS011;6022;48.768;18.608;2022-07-23T09:55:10;6.10;;;5.05;;
11924;SDS011;6022;48.768;18.608;2022-07-23T09:57:42;5.82;;;5.30;;
11924;SDS011;6022;48.768;18.608;2022-07-23T10:00:15;7.35;;;5.68;;
11924;SDS011;6022;48.768;18.608;2022-07-23T10:02:43;5.68;;;5.15;;
11924;SDS011;6022;48.768;18.608;2022-07-23T10:05:14;8.23;;;5.50;;
11924;SDS011;6022;48.768;18.608;2022-07-23T10:07:42;5.35;;;4.85;;
11924;SDS011;6022;48.768;18.608;2022-07-23T10:10:18;6.20;;;4.95;;
11924;SDS011;6022;48.768;18.608;2022-07-23T10:12:49;5.32;;;4.82;;
11924;SDS011;6022;48.768;18.608;2022-07-23T10:15:35;5.18;;;4.78;;
11924;SDS011;6022;48.768;18.608;2022-07-23T10:18:03;6.20;;;5.18;;
11924;SDS011;6022;48.768;18.608;2022-07-23T10:20:33;6.15;;;5.18;;
11924;SDS011;6022;48.768;18.608;2022-07-23T10:29:13;7.25;;;5.43;;
11924;SDS011;6022;48.768;18.608;2022-07-23T10:32:12;6.03;;;4.63;;
11924;SDS011;6022;48.768;18.608;2022-07-23T10:35:39;7.82;;;5.38;;
11924;SDS011;6022;48.768;18.608;2022-07-23T10:38:35;5.60;;;4.93;;
11924;SDS011;6022;48.768;18.608;2022-07-23T10:41:12;5.50;;;4.85;;
11924;SDS011;6022;48.768;18.608;2022-07-23T10:43:41;5.18;;;4.78;;
11924;SDS011;6022;48.768;18.608;2022-07-23T10:46:42;4.95;;;4.55;;
11924;SDS011;6022;48.768;18.608;2022-07-23T10:49:30;5.80;;;4.85;;
11924;SDS011;6022;48.768;18.608;2022-07-23T10:52:17;5.55;;;4.90;;
11924;SDS011;6022;48.768;18.608;2022-07-23T10:54:51;7.43;;;4.88;;
11924;SDS011;6022;48.768;18.608;2022-07-23T10:57:48;7.05;;;4.70;;
11924;SDS011;6022;48.768;18.608;2022-07-23T11:00:20;5.32;;;4.93;;
11924;SDS011;6022;48.768;18.608;2022-07-23T11:02:53;6.82;;;5.22;;
11924;SDS011;6022;48.768;18.608;2022-07-23T11:05:30;6.38;;;5.13;;
11924;SDS011;6022;48.768;18.608;2022-07-23T11:08:14;5.82;;;5.07;;
11924;SDS011;6022;48.768;18.608;2022-07-23T11:11:07;5.43;;;4.93;;
11924;SDS011;6022;48.768;18.608;2022-07-23T11:13:41;5.30;;;4.80;;
11924;SDS011;6022;48.768;18.608;2022-07-23T11:16:14;10.48;;;9.48;;
11924;SDS011;6022;48.768;18.608;2022-07-23T11:26:45;6.07;;;5.47;;
11924;SDS011;6022;48.768;18.608;2022-07-23T11:31:57;5.88;;;5.20;;
11924;SDS011;6022;48.768;18.608;2022-07-23T11:34:44;6.70;;;5.30;;
11924;SDS011;6022;48.768;18.608;2022-07-23T11:37:29;5.93;;;4.90;;
11924;SDS011;6022;48.768;18.608;2022-07-23T11:40:10;5.72;;;5.20;;
11924;SDS011;6022;48.768;18.608;2022-07-23T11:42:51;5.78;;;5.22;;
11924;SDS011;6022;48.768;18.608;2022-07-23T11:45:32;11.25;;;5.35;;
11924;SDS011;6022;48.768;18.608;2022-07-23T11:48:05;8.88;;;5.40;;
11924;SDS011;6022;48.768;18.608;2022-07-23T11:50:37;5.85;;;5.18;;
11924;SDS011;6022;48.768;18.608;2022-07-23T11:53:05;5.85;;;5.05;;
11924;SDS011;6022;48.768;18.608;2022-07-23T11:55:32;7.90;;;5.10;;
11924;SDS011;6022;48.768;18.608;2022-07-23T11:58:00;6.53;;;5.00;;
11924;SDS011;6022;48.768;18.608;2022-07-23T12:00:29;6.00;;;4.90;;
11924;SDS011;6022;48.768;18.608;2022-07-23T12:03:05;6.35;;;4.90;;
11924;SDS011;6022;48.768;18.608;2022-07-23T12:05:35;5.03;;;4.53;;
11924;SDS011;6022;48.768;18.608;2022-07-23T12:08:06;5.35;;;4.82;;
11924;SDS011;6022;48.768;18.608;2022-07-23T12:10:41;5.50;;;5.00;;
11924;SDS011;6022;48.768;18.608;2022-07-23T12:13:12;5.32;;;4.90;;
11924;SDS011;6022;48.768;18.608;2022-07-23T12:15:47;6.32;;;5.22;;
11924;SDS011;6022;48.768;18.608;2022-07-23T12:18:21;5.70;;;5.20;;
11924;SDS011;6022;48.768;18.608;2022-07-23T12:20:52;5.60;;;5.10;;
11924;SDS011;6022;48.768;18.608;2022-07-23T12:23:24;4.95;;;4.63;;
11924;SDS011;6022;48.768;18.608;2022-07-23T12:25:53;6.60;;;4.50;;
11924;SDS011;6022;48.768;18.608;2022-07-23T12:28:29;4.87;;;4.47;;
11924;SDS011;6022;48.768;18.608;2022-07-23T12:31:00;5.13;;;4.73;;
11924;SDS011;6022;48.768;18.608;2022-07-23T12:33:29;6.23;;;4.57;;
11924;SDS011;6022;48.768;18.608;2022-07-23T12:36:01;6.67;;;4.97;;
11924;SDS011;6022;48.768;18.608;2022-07-23T12:41:16;5.13;;;4.63;;
11924;SDS011;6022;48.768;18.608;2022-07-23T12:43:45;5.20;;;4.70;;
11924;SDS011;6022;48.768;18.608;2022-07-23T12:46:17;7.10;;;4.73;;
11924;SDS011;6022;48.768;18.608;2022-07-23T12:51:22;5.70;;;4.40;;
11924;SDS011;6022;48.768;18.608;2022-07-23T12:56:40;5.23;;;4.73;;
11924;SDS011;6022;48.768;18.608;2022-07-23T12:59:14;6.37;;;4.87;;
11924;SDS011;6022;48.768;18.608;2022-07-23T13:01:45;8.57;;;4.87;;
11924;SDS011;6022;48.768;18.608;2022-07-23T13:04:24;5.30;;;4.80;;
11924;SDS011;6022;48.768;18.608;2022-07-23T13:06:54;5.20;;;4.47;;
11924;SDS011;6022;48.768;18.608;2022-07-23T13:09:34;5.17;;;4.67;;
11924;SDS011;6022;48.768;18.608;2022-07-23T13:12:08;5.17;;;4.67;;
11924;SDS011;6022;48.768;18.608;2022-07-23T13:14:38;7.73;;;4.77;;
11924;SDS011;6022;48.768;18.608;2022-07-23T13:17:07;6.87;;;4.70;;
11924;SDS011;6022;48.768;18.608;2022-07-23T13:19:35;5.73;;;5.03;;
11924;SDS011;6022;48.768;18.608;2022-07-23T13:22:03;5.10;;;4.60;;
11924;SDS011;6022;48.768;18.608;2022-07-23T13:24:35;12.77;;;8.90;;
11924;SDS011;6022;48.768;18.608;2022-07-23T13:27:06;6.47;;;4.70;;
11924;SDS011;6022;48.768;18.608;2022-07-23T13:29:39;10.63;;;5.23;;
11924;SDS011;6022;48.768;18.608;2022-07-23T13:32:11;7.00;;;5.00;;
11924;SDS011;6022;48.768;18.608;2022-07-23T13:34:40;5.53;;;5.13;;
11924;SDS011;6022;48.768;18.608;2022-07-23T13:37:08;5.97;;;4.53;;
11924;SDS011;6022;48.768;18.608;2022-07-23T13:39:35;5.40;;;4.90;;
11924;SDS011;6022;48.768;18.608;2022-07-23T13:42:05;7.10;;;5.17;;
11924;SDS011;6022;48.768;18.608;2022-07-23T13:44:34;5.47;;;4.97;;
11924;SDS011;6022;48.768;18.608;2022-07-23T13:47:02;7.00;;;4.97;;
11924;SDS011;6022;48.768;18.608;2022-07-23T13:49:31;6.03;;;4.90;;
11924;SDS011;6022;48.768;18.608;2022-07-23T13:52:01;8.77;;;5.73;;
11924;SDS011;6022;48.768;18.608;2022-07-23T13:54:33;9.00;;;5.70;;
11924;SDS011;6022;48.768;18.608;2022-07-23T13:57:01;6.27;;;5.63;;
11924;SDS011;6022;48.768;18.608;2022-07-23T13:59:31;5.60;;;5.20;;
11924;SDS011;6022;48.768;18.608;2022-07-23T14:01:59;8.37;;;5.40;;
11924;SDS011;6022;48.768;18.608;2022-07-23T14:04:47;8.33;;;5.30;;
11924;SDS011;6022;48.768;18.608;2022-07-23T14:07:15;12.00;;;5.40;;
11924;SDS011;6022;48.768;18.608;2022-07-23T14:09:45;6.27;;;5.47;;
11924;SDS011;6022;48.768;18.608;2022-07-23T14:12:12;6.20;;;5.57;;
11924;SDS011;6022;48.768;18.608;2022-07-23T14:14:43;7.73;;;6.00;;
11924;SDS011;6022;48.768;18.608;2022-07-23T14:17:12;8.93;;;5.87;;
11924;SDS011;6022;48.768;18.608;2022-07-23T14:19:40;6.10;;;5.40;;
11924;SDS011;6022;48.768;18.608;2022-07-23T14:22:09;5.87;;;5.27;;
11924;SDS011;6022;48.768;18.608;2022-07-23T14:24:38;6.37;;;5.77;;
11924;SDS011;6022;48.768;18.608;2022-07-23T14:27:06;6.57;;;5.90;;
11924;SDS011;6022;48.768;18.608;2022-07-23T14:29:35;6.03;;;5.43;;
11924;SDS011;6022;48.768;18.608;2022-07-23T14:32:03;5.73;;;5.20;;
11924;SDS011;6022;48.768;18.608;2022-07-23T14:34:32;11.33;;;5.37;;
11924;SDS011;6022;48.768;18.608;2022-07-23T14:37:03;7.17;;;5.07;;
11924;SDS011;6022;48.768;18.608;2022-07-23T14:39:32;6.03;;;5.43;;
11924;SDS011;6022;48.768;18.608;2022-07-23T14:42:00;5.90;;;5.30;;
11924;SDS011;6022;48.768;18.608;2022-07-23T14:44:29;10.43;;;6.17;;
11924;SDS011;6022;48.768;18.608;2022-07-23T14:46:58;7.23;;;5.80;;
11924;SDS011;6022;48.768;18.608;2022-07-23T14:49:27;14.30;;;6.83;;
11924;SDS011;6022;48.768;18.608;2022-07-23T14:51:55;13.73;;;7.00;;
11924;SDS011;6022;48.768;18.608;2022-07-23T14:54:25;12.83;;;6.27;;
11924;SDS011;6022;48.768;18.608;2022-07-23T14:56:55;15.13;;;6.27;;
11924;SDS011;6022;48.768;18.608;2022-07-23T14:59:28;11.37;;;6.70;;
11924;SDS011;6022;48.768;18.608;2022-07-23T15:01:57;8.93;;;6.20;;
11924;SDS011;6022;48.768;18.608;2022-07-23T15:04:25;11.93;;;6.53;;
11924;SDS011;6022;48.768;18.608;2022-07-23T15:07:03;17.07;;;6.23;;
11924;SDS011;6022;48.768;18.608;2022-07-23T15:09:35;8.87;;;6.00;;
11924;SDS011;6022;48.768;18.608;2022-07-23T15:12:03;10.67;;;6.30;;
11924;SDS011;6022;48.768;18.608;2022-07-23T15:14:37;5.70;;;5.20;;
11924;SDS011;6022;48.768;18.608;2022-07-23T15:17:05;5.57;;;5.07;;
11924;SDS011;6022;48.768;18.608;2022-07-23T15:19:33;7.47;;;5.30;;
11924;SDS011;6022;48.768;18.608;2022-07-23T15:22:02;6.27;;;5.20;;
11924;SDS011;6022;48.768;18.608;2022-07-23T15:24:33;5.17;;;4.70;;
11924;SDS011;6022;48.768;18.608;2022-07-23T15:27:01;6.30;;;5.70;;
11924;SDS011;6022;48.768;18.608;2022-07-23T15:29:30;9.33;;;5.60;;
11924;SDS011;6022;48.768;18.608;2022-07-23T15:31:57;5.90;;;5.40;;
11924;SDS011;6022;48.768;18.608;2022-07-23T15:34:27;7.00;;;5.63;;
11924;SDS011;6022;48.768;18.608;2022-07-23T15:36:55;6.50;;;5.27;;
11924;SDS011;6022;48.768;18.608;2022-07-23T15:39:27;6.37;;;5.70;;